Time;durP1;ratioP1;P1;durP2;ratioP2;P2;SDS_P1;SDS_P2;PMS_P1;PMS_P2;Temp;Humidity;BMP_temperature;BMP_pressure;BME280_temperature;BME280_humidity;BME280_pressure;Samples;Min_cycle;Max_cycle;Signal;HPM_P1;HPM_P2
2022/03/13 00:00:46;;;;;;;;;;;;;;;21.59;25.04;95592.47;10407289;28;1968;-48
2022/03/13 00:05:49;;;;;;;;;;;;;;;21.59;24.97;95595.13;10399403;28;1778;-48
2022/03/13 00:10:56;;;;;;;;;;;;;;;21.60;24.90;95584.28;10388011;28;1977;-50
2022/03/13 00:16:09;;;;;;;;;;;;;;;21.57;24.78;95594.63;10410412;28;1870;-48
2022/03/13 00:21:10;;;;;;;;;;;;;;;21.59;24.80;95597.75;10390303;28;1978;-48
2022/03/13 00:26:11;;;;;;;;;;;;;;;21.62;24.63;95583.97;10406890;28;2058;-49
2022/03/13 00:31:15;;;;;;;;;;;;;;;21.58;24.50;95590.91;10389932;28;2265;-48
2022/03/13 00:36:16;;;;;;;;;;;;;;;21.60;24.43;95594.03;10385899;28;1816;-48
2022/03/13 00:41:16;;;;;;;;;;;;;;;21.58;24.56;95590.91;10409077;28;2002;-46
2022/03/13 00:46:16;;;;;;;;;;;;;;;21.61;24.31;95579.78;10397977;28;1810;-49
2022/03/13 00:51:17;;;;;;;;;;;;;;;21.59;24.49;95581.94;10390973;28;1915;-44
2022/03/13 00:56:17;;;;;;;;;;;;;;;21.60;24.25;95567.66;10402582;28;1738;-47
2022/03/13 01:01:17;;;;;;;;;;;;;;;21.56;24.28;95569.28;10402965;28;1981;-48
2022/03/13 01:06:18;;;;;;;;;;;;;;;21.56;24.20;95556.09;10393306;28;1882;-47
2022/03/13 01:11:19;;;;;;;;;;;;;;;21.59;24.19;95552.91;10386899;28;1741;-47
2022/03/13 01:16:21;;;;;;;;;;;;;;;21.58;24.19;95549.50;10399448;28;1914;-46
2022/03/13 01:21:22;;;;;;;;;;;;;;;21.60;24.08;95538.66;10415300;28;1903;-43
2022/03/13 01:26:22;;;;;;;;;;;;;;;21.57;24.07;95536.59;10403301;28;1748;-47
2022/03/13 01:31:23;;;;;;;;;;;;;;;21.59;24.06;95539.72;10406405;28;2212;-43
2022/03/13 01:36:23;;;;;;;;;;;;;;;21.61;24.00;95543.66;10395676;28;2007;-44
2022/03/13 01:41:24;;;;;;;;;;;;;;;21.62;24.06;95539.94;10387662;28;1977;-46
2022/03/13 01:46:25;;;;;;;;;;;;;;;21.60;24.00;95530.72;10386416;28;1980;-45
2022/03/13 01:51:25;;;;;;;;;;;;;;;21.57;24.04;95532.09;10382216;28;1980;-45
2022/03/13 01:56:26;;;;;;;;;;;;;;;21.59;24.06;95550.28;10387539;28;1869;-48
2022/03/13 02:01:27;;;;;;;;;;;;;;;21.56;23.98;95538.44;10362382;28;2324;-44
2022/03/13 02:06:27;;;;;;;;;;;;;;;21.59;23.77;95532.59;10386139;28;1927;-48
2022/03/13 02:11:38;;;;;;;;;;;;;;;21.56;23.80;95533.16;10407896;28;1897;-46
2022/03/13 02:16:39;;;;;;;;;;;;;;;21.59;23.87;95523.91;10363240;28;1881;-49
2022/03/13 02:21:44;;;;;;;;;;;;;;;21.56;23.60;95529.72;10382620;28;1906;-43
2022/03/13 02:26:55;;;;;;;;;;;;;;;21.57;23.53;95518.13;10390620;28;1947;-44
2022/03/13 02:32:04;;;;;;;;;;;;;;;21.59;23.57;95529.19;10386511;28;1895;-43
2022/03/13 02:37:14;;;;;;;;;;;;;;;21.58;23.66;95524.97;10392121;28;1930;-47
2022/03/13 02:42:14;;;;;;;;;;;;;;;21.58;23.73;95519.69;10387082;28;1910;-48
2022/03/13 02:47:16;;;;;;;;;;;;;;;21.59;23.66;95521.25;10383465;28;1971;-44
2022/03/13 02:52:16;;;;;;;;;;;;;;;21.59;23.65;95523.91;10380369;28;2221;-45
2022/03/13 02:57:17;;;;;;;;;;;;;;;21.56;23.61;95524.47;10405331;28;1853;-45
2022/03/13 03:02:17;;;;;;;;;;;;;;;21.60;23.28;95525.47;10382078;28;2058;-47
2022/03/13 03:07:18;;;;;;;;;;;;;;;21.57;23.54;95524.19;10393856;28;2345;-46
2022/03/13 03:12:18;;;;;;;;;;;;;;;21.61;23.49;95538.38;10366021;28;2244;-44
2022/03/13 03:17:18;;;;;;;;;;;;;;;21.61;23.39;95534.94;10395661;28;1986;-48
2022/03/13 03:22:19;;;;;;;;;;;;;;;21.58;23.51;95532.88;10407421;28;1972;-52
2022/03/13 03:27:19;;;;;;;;;;;;;;;21.61;23.36;95538.38;10407953;28;2023;-48
2022/03/13 03:32:19;;;;;;;;;;;;;;;21.59;23.23;95539.72;10389799;28;2372;-49
2022/03/13 03:37:19;;;;;;;;;;;;;;;21.60;23.07;95536.78;10385963;28;2025;-50
2022/03/13 03:42:20;;;;;;;;;;;;;;;21.65;22.96;95543.88;10401998;28;2036;-48
2022/03/13 03:47:21;;;;;;;;;;;;;;;21.61;23.25;95540.22;10388521;28;2015;-49
2022/03/13 03:52:21;;;;;;;;;;;;;;;21.59;22.92;95543.16;10400595;28;1933;-45
2022/03/13 03:57:21;;;;;;;;;;;;;;;21.62;23.14;95542.56;10407529;28;1917;-50
2022/03/13 04:02:22;;;;;;;;;;;;;;;21.61;22.89;95551.56;10396212;28;1967;-47
2022/03/13 04:07:22;;;;;;;;;;;;;;;21.63;23.17;95556.56;10387159;28;1990;-48
2022/03/13 04:12:23;;;;;;;;;;;;;;;21.60;23.05;95551.84;10414816;28;1933;-48
2022/03/13 04:17:24;;;;;;;;;;;;;;;21.58;22.92;95549.50;10400670;28;1754;-44
2022/03/13 04:22:26;;;;;;;;;;;;;;;21.61;22.86;95558.69;10409279;28;2069;-51
2022/03/13 04:27:28;;;;;;;;;;;;;;;21.62;23.03;95560.25;10389233;28;1939;-47
2022/03/13 04:32:29;;;;;;;;;;;;;;;21.61;22.68;95563.97;10401757;28;1913;-45
2022/03/13 04:37:30;;;;;;;;;;;;;;;21.63;22.79;95561.84;10407340;28;1906;-43
2022/03/13 04:42:30;;;;;;;;;;;;;;;21.61;22.80;95561.34;10385396;28;2410;-43
2022/03/13 04:47:31;;;;;;;;;;;;;;;21.62;22.82;95560.25;10409743;28;1989;-46
2022/03/13 04:52:31;;;;;;;;;;;;;;;21.63;22.89;95570.53;10409383;28;2123;-43
2022/03/13 04:57:32;;;;;;;;;;;;;;;21.57;22.74;95566.41;10384031;28;2032;-48
2022/03/13 05:02:32;;;;;;;;;;;;;;;21.63;22.80;95575.03;10399756;28;2001;-46
2022/03/13 05:07:34;;;;;;;;;;;;;;;21.61;22.61;95580.59;10412616;28;1981;-47
2022/03/13 05:12:35;;;;;;;;;;;;;;;21.62;22.68;95587.41;10406639;28;2227;-50
2022/03/13 05:17:36;;;;;;;;;;;;;;;21.62;22.73;95589.25;10412835;28;2016;-45
2022/03/13 05:22:36;;;;;;;;;;;;;;;21.61;22.52;95585.06;10390950;28;2442;-43
2022/03/13 05:27:36;;;;;;;;;;;;;;;21.63;22.66;95590.84;10386242;28;2137;-44
2022/03/13 05:32:37;;;;;;;;;;;;;;;21.60;22.47;95601.94;10391375;28;1942;-45
2022/03/13 05:37:38;;;;;;;;;;;;;;;21.59;22.69;95595.91;10421647;28;2023;-48
2022/03/13 05:42:44;;;;;;;;;;;;;;;21.61;22.63;95603.53;10400918;28;1961;-46
2022/03/13 05:47:45;;;;;;;;;;;;;;;21.61;22.48;95611.44;10381321;28;1825;-47
2022/03/13 05:52:46;;;;;;;;;;;;;;;21.62;22.54;95613.78;10424191;28;1984;-48
2022/03/13 05:57:46;;;;;;;;;;;;;;;21.59;22.41;95622.28;10377264;28;1854;-46
2022/03/13 06:02:47;;;;;;;;;;;;;;;21.61;22.46;95622.00;10391272;28;2133;-43
2022/03/13 06:07:48;;;;;;;;;;;;;;;21.61;22.34;95625.44;10384784;28;1999;-43
2022/03/13 06:12:48;;;;;;;;;;;;;;;21.59;22.35;95629.41;10419521;28;2004;-43
2022/03/13 06:17:48;;;;;;;;;;;;;;;21.54;22.37;95630.25;10383695;28;1967;-46
2022/03/13 06:22:49;;;;;;;;;;;;;;;21.53;22.43;95626.06;10384958;28;2057;-43
2022/03/13 06:27:49;;;;;;;;;;;;;;;21.55;22.27;95636.31;10383556;28;1879;-42
2022/03/13 06:32:50;;;;;;;;;;;;;;;21.56;22.26;95624.69;10383919;28;1981;-48
2022/03/13 06:37:51;;;;;;;;;;;;;;;21.53;22.37;95630.53;10396348;28;1957;-46
2022/03/13 06:42:52;;;;;;;;;;;;;;;21.52;22.24;95634.22;10408837;28;1993;-50
2022/03/13 06:47:52;;;;;;;;;;;;;;;21.55;22.35;95633.69;10397954;28;2006;-47
2022/03/13 06:52:53;;;;;;;;;;;;;;;21.57;22.35;95637.63;10402431;28;1937;-47
2022/03/13 06:57:53;;;;;;;;;;;;;;;21.59;22.38;95650.50;10401763;28;1938;-47
2022/03/13 07:02:53;;;;;;;;;;;;;;;21.56;22.35;95648.41;10391082;28;1931;-46
2022/03/13 07:07:54;;;;;;;;;;;;;;;21.54;22.21;95663.75;10390971;28;1931;-43
2022/03/13 07:12:58;;;;;;;;;;;;;;;21.55;22.21;95658.22;10390359;28;1976;-46
2022/03/13 07:17:59;;;;;;;;;;;;;;;21.56;22.26;95661.59;10391325;28;1807;-47
2022/03/13 07:22:59;;;;;;;;;;;;;;;21.60;22.12;95659.97;10387903;28;1969;-47
2022/03/13 07:27:59;;;;;;;;;;;;;;;21.58;22.35;95660.28;10386980;28;1977;-47
2022/03/13 07:33:00;;;;;;;;;;;;;;;21.55;22.26;95660.84;10389241;28;2123;-45
2022/03/13 07:38:00;;;;;;;;;;;;;;;21.55;22.35;95660.06;10410313;28;1973;-47
2022/03/13 07:43:01;;;;;;;;;;;;;;;21.61;22.08;95664.19;10401533;28;1910;-49
2022/03/13 07:48:01;;;;;;;;;;;;;;;21.56;22.39;95659.75;10400248;28;1993;-45
2022/03/13 07:53:02;;;;;;;;;;;;;;;21.57;22.29;95652.66;10407255;28;1894;-44
2022/03/13 07:58:02;;;;;;;;;;;;;;;21.58;22.34;95649.72;10399775;28;1932;-45
2022/03/13 08:03:03;;;;;;;;;;;;;;;21.55;22.36;95654.78;10399404;28;1976;-44
2022/03/13 08:08:03;;;;;;;;;;;;;;;21.58;22.46;95659.47;10395516;28;1993;-44
2022/03/13 08:13:04;;;;;;;;;;;;;;;21.57;22.39;95658.72;10378686;28;1996;-46
2022/03/13 08:18:04;;;;;;;;;;;;;;;21.59;22.27;95661.06;10393347;28;1804;-48
2022/03/13 08:23:05;;;;;;;;;;;;;;;21.33;21.58;95659.78;10408875;28;1965;-51
2022/03/13 08:28:06;;;;;;;;;;;;;;;21.25;21.48;95655.88;10382058;28;1964;-49
2022/03/13 08:33:09;;;;;;;;;;;;;;;21.15;20.82;95652.56;10404265;28;1802;-48
2022/03/13 08:38:10;;;;;;;;;;;;;;;21.05;21.13;95650.81;10388336;28;1762;-45
2022/03/13 08:43:10;;;;;;;;;;;;;;;21.16;21.45;95651.50;10379404;28;1910;-45
2022/03/13 08:48:13;;;;;;;;;;;;;;;21.32;22.19;95652.91;10379279;28;1861;-40
2022/03/13 08:53:13;;;;;;;;;;;;;;;21.57;22.48;95650.81;10399519;28;1731;-48
2022/03/13 08:58:13;;;;;;;;;;;;;;;21.60;22.50;95652.06;10380668;28;1792;-47
2022/03/13 09:03:14;;;;;;;;;;;;;;;21.65;22.64;95649.38;10400145;28;1968;-48
2022/03/13 09:08:14;;;;;;;;;;;;;;;21.63;22.60;95651.50;10372338;28;2156;-47
2022/03/13 09:13:16;;;;;;;;;;;;;;;21.65;23.10;95655.44;10382782;28;1952;-44
2022/03/13 09:18:16;;;;;;;;;;;;;;;21.71;23.11;95649.03;10401223;28;1764;-45
2022/03/13 09:23:16;;;;;;;;;;;;;;;21.72;23.20;95649.84;10388701;28;1910;-43
2022/03/13 09:28:17;;;;;;;;;;;;;;;21.75;23.58;95651.88;10380492;28;1782;-41
2022/03/13 09:33:19;;;;;;;;;;;;;;;21.76;23.50;95646.31;10405996;28;1881;-45
2022/03/13 09:38:19;;;;;;;;;;;;;;;21.78;23.63;95654.75;10385356;28;1895;-41
2022/03/13 09:43:20;;;;;;;;;;;;;;;21.77;23.54;95649.75;10408286;28;2039;-40
2022/03/13 09:48:21;;;;;;;;;;;;;;;21.74;23.65;95652.97;10400350;28;1865;-46
2022/03/13 09:53:22;;;;;;;;;;;;;;;21.70;24.18;95644.06;10384509;28;1882;-47
2022/03/13 09:58:23;;;;;;;;;;;;;;;21.78;24.00;95648.69;10386553;28;1802;-44
2022/03/13 10:03:23;;;;;;;;;;;;;;;21.73;23.95;95652.19;10396662;28;1922;-43
2022/03/13 10:08:26;;;;;;;;;;;;;;;21.75;23.83;95642.13;10402056;28;1810;-42
2022/03/13 10:13:33;;;;;;;;;;;;;;;21.75;24.17;95636.84;10417517;28;1892;-45
2022/03/13 10:18:34;;;;;;;;;;;;;;;21.73;24.06;95630.28;10384144;28;1910;-47
2022/03/13 10:23:34;;;;;;;;;;;;;;;21.75;23.89;95631.56;10389754;28;1906;-49
2022/03/13 10:28:36;;;;;;;;;;;;;;;21.70;23.92;95620.31;10390513;28;1853;-47
2022/03/13 10:33:42;;;;;;;;;;;;;;;21.75;23.81;95623.66;10396833;28;1814;-48
2022/03/13 10:38:43;;;;;;;;;;;;;;;21.72;24.32;95620.81;10402498;28;1645;-46
2022/03/13 10:43:51;;;;;;;;;;;;;;;21.76;23.89;95619.19;10392066;28;2174;-45
2022/03/13 10:48:53;;;;;;;;;;;;;;;21.73;24.02;95614.44;10413255;28;1831;-45
2022/03/13 10:53:53;;;;;;;;;;;;;;;21.73;24.11;95617.09;10410258;28;1762;-47
2022/03/13 10:58:53;;;;;;;;;;;;;;;21.73;24.14;95617.09;10386113;28;1860;-47
2022/03/13 11:03:54;;;;;;;;;;;;;;;21.70;24.46;95615.03;10394281;28;2168;-46
2022/03/13 11:08:59;;;;;;;;;;;;;;;21.68;24.43;95612.66;10390869;28;1971;-40
2022/03/13 11:14:01;;;;;;;;;;;;;;;21.70;24.46;95610.53;10417353;28;1869;-41
2022/03/13 11:19:02;;;;;;;;;;;;;;;21.68;24.40;95590.75;10406320;28;1810;-44
2022/03/13 11:24:03;;;;;;;;;;;;;;;21.69;24.46;95589.72;10412391;28;1922;-43
2022/03/13 11:29:09;;;;;;;;;;;;;;;21.65;24.55;95594.78;10378531;28;1812;-47
2022/03/13 11:34:13;;;;;;;;;;;;;;;21.71;24.46;95590.22;10400325;28;1839;-44
2022/03/13 11:39:34;;;;;;;;;;;;;;;21.73;24.49;95586.22;10394975;28;1910;-45
2022/03/13 11:44:38;;;;;;;;;;;;;;;21.72;24.77;95578.59;10389279;28;1792;-47
2022/03/13 11:49:38;;;;;;;;;;;;;;;21.70;24.62;95580.75;10383167;28;1782;-45
2022/03/13 11:55:00;;;;;;;;;;;;;;;21.72;24.84;95570.69;10389870;28;1862;-43
2022/03/13 12:00:07;;;;;;;;;;;;;;;21.77;24.82;95557.41;10391101;28;1910;-43
2022/03/13 12:05:29;;;;;;;;;;;;;;;21.79;24.88;95552.63;10399308;28;1870;-46
2022/03/13 12:10:41;;;;;;;;;;;;;;;21.81;25.02;95550.50;10390775;28;1896;-41
2022/03/13 12:15:41;;;;;;;;;;;;;;;21.80;24.99;95546.31;10403574;28;1741;-43
2022/03/13 12:20:43;;;;;;;;;;;;;;;21.83;25.65;95532.53;10410960;28;1945;-43
2022/03/13 12:25:43;;;;;;;;;;;;;;;21.88;26.04;95524.56;10386944;28;1848;-45
2022/03/13 12:30:46;;;;;;;;;;;;;;;21.90;26.32;95513.72;10396830;28;1823;-41
2022/03/13 12:35:55;;;;;;;;;;;;;;;21.88;26.50;95514.78;10388374;28;1820;-40
2022/03/13 12:40:56;;;;;;;;;;;;;;;21.90;26.13;95514.50;10377187;28;1914;-42
2022/03/13 12:45:59;;;;;;;;;;;;;;;21.89;26.13;95502.38;10375337;28;1821;-41
2022/03/13 12:50:59;;;;;;;;;;;;;;;21.91;26.18;95504.75;10420763;28;1833;-40
2022/03/13 12:56:04;;;;;;;;;;;;;;;21.85;26.10;95499.53;10403424;28;1823;-43
2022/03/13 13:01:16;;;;;;;;;;;;;;;21.80;26.22;95499.56;10378466;28;1906;-42
2022/03/13 13:06:27;;;;;;;;;;;;;;;21.81;26.25;95500.34;10399621;28;1814;-41
2022/03/13 13:11:37;;;;;;;;;;;;;;;21.80;26.13;95496.94;10403959;28;1802;-43
2022/03/13 13:16:38;;;;;;;;;;;;;;;21.82;26.28;95496.69;10378643;28;1797;-44
2022/03/13 13:21:42;;;;;;;;;;;;;;;21.77;26.51;95492.25;10373180;28;1910;-43
2022/03/13 13:26:42;;;;;;;;;;;;;;;21.77;26.44;95483.53;10379148;28;2223;-47
2022/03/13 13:31:43;;;;;;;;;;;;;;;21.79;26.63;95481.41;10377429;28;2035;-48
2022/03/13 13:36:43;;;;;;;;;;;;;;;21.79;26.78;95481.41;10381272;28;1878;-42
2022/03/13 13:41:55;;;;;;;;;;;;;;;21.81;26.87;95476.63;10384112;28;2189;-46
2022/03/13 13:47:05;;;;;;;;;;;;;;;21.86;26.96;95473.94;10395881;28;1798;-49
2022/03/13 13:52:09;;;;;;;;;;;;;;;21.91;26.94;95462.53;10376551;28;1615;-49
2022/03/13 13:57:22;;;;;;;;;;;;;;;21.85;27.02;95464.44;10390798;28;1775;-51
2022/03/13 14:02:25;;;;;;;;;;;;;;;21.79;26.04;95455.00;10393168;28;1918;-42
2022/03/13 14:07:26;;;;;;;;;;;;;;;21.71;24.10;95458.31;10391018;28;1849;-45
2022/03/13 14:12:26;;;;;;;;;;;;;;;21.71;24.62;95458.31;10377038;28;1774;-44
2022/03/13 14:17:27;;;;;;;;;;;;;;;21.57;21.33;95457.47;10377520;28;2097;-46
2022/03/13 14:22:33;;;;;;;;;;;;;;;21.57;22.14;95452.19;10377112;28;2215;-46
2022/03/13 14:27:34;;;;;;;;;;;;;;;21.50;20.96;95451.75;10385612;28;1697;-47
2022/03/13 14:32:36;;;;;;;;;;;;;;;21.37;21.24;95441.94;10384882;28;1772;-46
2022/03/13 14:37:36;;;;;;;;;;;;;;;21.47;21.46;95441.78;10389776;28;2185;-42
2022/03/13 14:42:36;;;;;;;;;;;;;;;21.45;20.98;95433.38;10399257;28;1971;-43
2022/03/13 14:47:37;;;;;;;;;;;;;;;21.49;21.65;95434.38;10393238;28;1826;-46
2022/03/13 14:52:38;;;;;;;;;;;;;;;21.37;21.32;95436.69;10390290;28;1790;-48
2022/03/13 14:57:38;;;;;;;;;;;;;;;21.06;20.77;95426.53;10398138;28;1907;-43
2022/03/13 15:02:39;;;;;;;;;;;;;;;21.05;20.75;95429.47;10384966;28;1968;-47
2022/03/13 15:07:39;;;;;;;;;;;;;;;21.04;20.83;95428.66;10387422;28;1794;-49
2022/03/13 15:12:40;;;;;;;;;;;;;;;21.05;20.72;95432.88;10403061;28;1813;-41
2022/03/13 15:17:41;;;;;;;;;;;;;;;21.02;20.59;95436.06;10410469;28;1771;-42
2022/03/13 15:22:41;;;;;;;;;;;;;;;21.10;23.85;95439.94;10415552;28;1970;-43
2022/03/13 15:27:42;;;;;;;;;;;;;;;21.25;26.36;95429.19;10388223;28;1811;-45
2022/03/13 15:32:43;;;;;;;;;;;;;;;20.98;22.15;95435.03;10401058;28;1845;-47
2022/03/13 15:37:44;;;;;;;;;;;;;;;20.78;21.07;95435.31;10411928;28;1841;-46
2022/03/13 15:42:45;;;;;;;;;;;;;;;20.81;21.18;95434.72;10384832;28;1961;-47
2022/03/13 15:47:45;;;;;;;;;;;;;;;20.88;21.20;95434.38;10403545;28;1815;-48
2022/03/13 15:52:45;;;;;;;;;;;;;;;20.86;20.74;95439.94;10386160;28;1732;-44
2022/03/13 15:57:45;;;;;;;;;;;;;;;20.77;20.42;95433.72;10397863;28;1798;-44
2022/03/13 16:02:50;;;;;;;;;;;;;;;20.70;20.45;95440.41;10406800;28;1981;-44
2022/03/13 16:07:51;;;;;;;;;;;;;;;20.66;20.75;95447.28;10397072;28;1871;-44
2022/03/13 16:12:52;;;;;;;;;;;;;;;20.63;20.76;95443.38;10400308;28;1849;-49
2022/03/13 16:17:53;;;;;;;;;;;;;;;20.90;23.21;95446.22;10410046;28;1762;-44
2022/03/13 16:22:53;;;;;;;;;;;;;;;21.35;24.07;95460.66;10402898;28;1951;-45
2022/03/13 16:27:54;;;;;;;;;;;;;;;21.49;24.39;95455.47;10372844;28;1806;-43
2022/03/13 16:33:01;;;;;;;;;;;;;;;21.63;24.10;95458.97;10401782;28;1784;-46
2022/03/13 16:38:02;;;;;;;;;;;;;;;21.66;24.19;95466.28;10401738;28;1720;-42
2022/03/13 16:43:03;;;;;;;;;;;;;;;21.69;24.31;95461.22;10399145;28;1977;-45
2022/03/13 16:48:03;;;;;;;;;;;;;;;21.65;24.50;95462.88;10394210;28;1697;-47
2022/03/13 16:53:03;;;;;;;;;;;;;;;21.44;22.40;95461.59;10399856;28;2085;-48
2022/03/13 16:58:05;;;;;;;;;;;;;;;21.64;23.78;95458.66;10375211;28;1863;-46
2022/03/13 17:03:05;;;;;;;;;;;;;;;21.66;24.06;95466.28;10402971;28;1906;-44
2022/03/13 17:08:06;;;;;;;;;;;;;;;21.65;23.98;95468.16;10408810;28;1806;-43
2022/03/13 17:13:06;;;;;;;;;;;;;;;21.68;23.99;95469.41;10380653;28;1947;-44
2022/03/13 17:18:13;;;;;;;;;;;;;;;21.65;24.06;95470.00;10391833;28;1862;-41
2022/03/13 17:23:14;;;;;;;;;;;;;;;21.69;24.12;95476.28;10398539;28;1907;-43
2022/03/13 17:28:16;;;;;;;;;;;;;;;21.68;24.25;95464.94;10376273;28;1879;-40
2022/03/13 17:33:16;;;;;;;;;;;;;;;21.72;24.52;95470.44;10377320;28;1869;-44
2022/03/13 17:38:17;;;;;;;;;;;;;;;21.73;24.64;95479.91;10374680;28;1903;-43
2022/03/13 17:43:18;;;;;;;;;;;;;;;21.70;24.58;95475.22;10363577;28;1995;-41
2022/03/13 17:48:18;;;;;;;;;;;;;;;21.77;24.82;95472.97;10387470;28;1556;-41
2022/03/13 17:53:19;;;;;;;;;;;;;;;21.76;24.79;95476.72;10380650;28;1557;-41
2022/03/13 17:58:21;;;;;;;;;;;;;;;21.78;25.04;95485.13;10394077;28;1916;-40
2022/03/13 18:03:22;;;;;;;;;;;;;;;21.84;25.36;95474.22;10403098;28;1906;-44
2022/03/13 18:08:22;;;;;;;;;;;;;;;21.96;25.17;95471.13;10404408;28;1649;-43
2022/03/13 18:13:23;;;;;;;;;;;;;;;21.99;24.79;95470.53;10399063;28;1488;-39
2022/03/13 18:18:25;;;;;;;;;;;;;;;22.08;25.41;95486.50;10387110;28;1728;-50
2022/03/13 18:23:25;;;;;;;;;;;;;;;22.09;24.85;95477.53;10383549;28;1967;-41
2022/03/13 18:28:26;;;;;;;;;;;;;;;22.13;24.95;95479.31;10413978;28;1518;-40
2022/03/13 18:33:27;;;;;;;;;;;;;;;22.15;25.06;95485.09;10390700;28;1770;-44
2022/03/13 18:38:27;;;;;;;;;;;;;;;22.21;25.05;95483.13;10378615;28;1592;-42
2022/03/13 18:43:28;;;;;;;;;;;;;;;22.23;25.08;95476.50;10401045;28;1968;-41
2022/03/13 18:48:29;;;;;;;;;;;;;;;22.25;25.18;95474.34;10386803;28;1895;-42
2022/03/13 18:53:29;;;;;;;;;;;;;;;22.20;25.74;95471.78;10389222;28;2078;-43
2022/03/13 18:58:29;;;;;;;;;;;;;;;22.18;26.07;95478.41;10377992;28;1799;-40
2022/03/13 19:03:30;;;;;;;;;;;;;;;22.17;25.83;95482.16;10406963;28;1977;-42
2022/03/13 19:08:30;;;;;;;;;;;;;;;22.13;25.98;95489.88;10402318;28;1833;-42
2022/03/13 19:13:32;;;;;;;;;;;;;;;22.08;26.29;95495.22;10398870;28;1803;-42
2022/03/13 19:18:36;;;;;;;;;;;;;;;22.12;26.18;95490.13;10404708;28;1889;-48
2022/03/13 19:23:37;;;;;;;;;;;;;;;22.07;26.33;95492.88;10397355;28;1957;-45
2022/03/13 19:28:38;;;;;;;;;;;;;;;22.04;26.20;95491.59;10380572;28;1818;-41
2022/03/13 19:33:39;;;;;;;;;;;;;;;22.08;26.47;95495.22;10395860;28;1861;-43
2022/03/13 19:38:39;;;;;;;;;;;;;;;22.05;26.66;95501.06;10384682;28;1846;-42
2022/03/13 19:43:40;;;;;;;;;;;;;;;22.09;27.22;95502.03;10387142;28;1914;-43
2022/03/13 19:48:40;;;;;;;;;;;;;;;22.06;27.15;95507.91;10402730;28;1831;-43
2022/03/13 19:53:41;;;;;;;;;;;;;;;22.03;27.36;95503.22;10399545;28;1811;-40
2022/03/13 19:58:41;;;;;;;;;;;;;;;22.04;27.31;95512.69;10382369;28;1800;-42
2022/03/13 20:03:42;;;;;;;;;;;;;;;22.02;27.65;95512.22;10399264;28;1918;-43
2022/03/13 20:08:43;;;;;;;;;;;;;;;21.97;27.63;95514.16;10402439;28;1900;-42
2022/03/13 20:13:43;;;;;;;;;;;;;;;21.97;27.72;95503.59;10404611;28;2084;-43
2022/03/13 20:18:44;;;;;;;;;;;;;;;21.94;27.40;95515.50;10384660;28;1913;-43
2022/03/13 20:23:44;;;;;;;;;;;;;;;21.93;27.82;95513.16;10409354;28;2004;-41
2022/03/13 20:28:45;;;;;;;;;;;;;;;21.88;27.86;95516.66;10395231;28;1809;-44
2022/03/13 20:33:45;;;;;;;;;;;;;;;21.90;27.56;95525.06;10392270;28;1748;-42
2022/03/13 20:38:47;;;;;;;;;;;;;;;21.88;27.44;95537.75;10408646;28;1771;-41
2022/03/13 20:43:47;;;;;;;;;;;;;;;21.81;27.71;95529.38;10404294;28;2008;-42
2022/03/13 20:48:48;;;;;;;;;;;;;;;21.81;27.75;95534.66;10380382;28;1810;-47
2022/03/13 20:53:48;;;;;;;;;;;;;;;21.79;27.83;95536.81;10382669;28;1959;-44
2022/03/13 20:58:48;;;;;;;;;;;;;;;21.76;27.81;95540.78;10385066;28;1630;-41
2022/03/13 21:03:49;;;;;;;;;;;;;;;21.76;28.23;95545.31;10385429;28;1918;-41
2022/03/13 21:08:49;;;;;;;;;;;;;;;21.80;28.70;95548.94;10384033;28;1791;-43
2022/03/13 21:13:53;;;;;;;;;;;;;;;21.81;29.14;95548.69;10404716;28;1859;-39
2022/03/13 21:18:53;;;;;;;;;;;;;;;21.84;29.23;95542.03;10396049;28;1826;-45
2022/03/13 21:23:54;;;;;;;;;;;;;;;21.86;29.21;95547.81;10386477;28;1930;-45
2022/03/13 21:28:54;;;;;;;;;;;;;;;21.84;29.47;95552.59;10378451;28;2007;-43
2022/03/13 21:33:55;;;;;;;;;;;;;;;21.82;29.30;95566.06;10395850;28;1897;-43
2022/03/13 21:38:55;;;;;;;;;;;;;;;21.81;29.25;95567.16;10378458;28;1836;-40
2022/03/13 21:43:56;;;;;;;;;;;;;;;21.79;29.11;95566.63;10418207;28;1914;-40
2022/03/13 21:48:57;;;;;;;;;;;;;;;21.79;29.11;95568.47;10375734;28;2235;-44
2022/03/13 21:53:58;;;;;;;;;;;;;;;21.80;28.45;95568.16;10379684;28;2094;-41
2022/03/13 21:58:59;;;;;;;;;;;;;;;21.74;28.79;95582.50;10378771;28;1866;-40
2022/03/13 22:03:59;;;;;;;;;;;;;;;21.74;28.73;95579.09;10411103;28;1913;-42
2022/03/13 22:09:01;;;;;;;;;;;;;;;21.70;28.65;95567.56;10409851;28;1843;-43
2022/03/13 22:14:01;;;;;;;;;;;;;;;21.71;28.48;95574.38;10405050;28;1866;-39
2022/03/13 22:19:02;;;;;;;;;;;;;;;21.68;28.47;95581.00;10407832;28;1857;-43
2022/03/13 22:24:02;;;;;;;;;;;;;;;21.67;28.19;95578.66;10388393;28;1964;-43
2022/03/13 22:29:03;;;;;;;;;;;;;;;21.69;28.07;95581.78;10399129;28;1844;-45
2022/03/13 22:34:03;;;;;;;;;;;;;;;21.67;27.78;95589.22;10407190;28;1758;-41
2022/03/13 22:39:04;;;;;;;;;;;;;;;21.68;27.83;95585.50;10387805;28;1825;-42
2022/03/13 22:44:04;;;;;;;;;;;;;;;21.70;27.86;95589.41;10413706;28;1910;-39
2022/03/13 22:49:05;;;;;;;;;;;;;;;21.70;27.54;95593.94;10390450;28;1861;-39
2022/03/13 22:54:06;;;;;;;;;;;;;;;21.69;27.48;95593.13;10390003;28;1799;-41
2022/03/13 22:59:07;;;;;;;;;;;;;;;21.71;27.40;95596.28;10397302;28;1897;-43
2022/03/13 23:04:07;;;;;;;;;;;;;;;21.74;27.15;95616.03;10384366;28;1907;-40
2022/03/13 23:09:08;;;;;;;;;;;;;;;21.71;27.42;95606.03;10405973;28;1825;-39
2022/03/13 23:14:09;;;;;;;;;;;;;;;21.72;27.09;95604.97;10384443;28;1822;-45
2022/03/13 23:19:12;;;;;;;;;;;;;;;21.74;26.96;95621.31;10393270;28;1844;-40
2022/03/13 23:24:15;;;;;;;;;;;;;;;21.78;26.78;95622.31;10404905;28;1906;-39
2022/03/13 23:29:16;;;;;;;;;;;;;;;21.76;26.96;95625.22;10404728;28;1823;-39
2022/03/13 23:34:17;;;;;;;;;;;;;;;21.75;26.99;95628.16;10389010;28;1859;-42
2022/03/13 23:39:17;;;;;;;;;;;;;;;21.77;26.35;95637.34;10400409;28;1828;-43
2022/03/13 23:44:17;;;;;;;;;;;;;;;21.78;26.67;95644.19;10396625;28;1903;-41
2022/03/13 23:49:18;;;;;;;;;;;;;;;21.80;26.28;95649.19;10382392;28;1745;-41
2022/03/13 23:54:18;;;;;;;;;;;;;;;21.78;26.54;95648.69;10387649;28;1984;-39
2022/03/13 23:59:19;;;;;;;;;;;;;;;21.78;26.20;95649.47;10380029;28;1936;-42
